sensor_id;sensor_type;location;lat;lon;timestamp;temperature;humidity
1812;DHT22;904;47.814;11.134;2023-02-26T00:00:23;2.10;88.80
1812;DHT22;904;47.814;11.134;2023-02-26T00:02:51;2.10;89.00
1812;DHT22;904;47.814;11.134;2023-02-26T00:05:18;2.10;88.90
1812;DHT22;904;47.814;11.134;2023-02-26T00:07:45;2.10;88.80
1812;DHT22;904;47.814;11.134;2023-02-26T00:10:13;2.10;88.60
1812;DHT22;904;47.814;11.134;2023-02-26T00:12:42;2.10;88.50
1812;DHT22;904;47.814;11.134;2023-02-26T00:15:12;2.10;88.90
1812;DHT22;904;47.814;11.134;2023-02-26T00:17:50;2.10;88.70
1812;DHT22;904;47.814;11.134;2023-02-26T00:20:18;2.00;88.60
1812;DHT22;904;47.814;11.134;2023-02-26T00:22:46;2.00;89.80
1812;DHT22;904;47.814;11.134;2023-02-26T00:25:14;2.00;88.80
1812;DHT22;904;47.814;11.134;2023-02-26T00:27:42;2.00;88.60
1812;DHT22;904;47.814;11.134;2023-02-26T00:30:11;2.00;88.70
1812;DHT22;904;47.814;11.134;2023-02-26T00:32:39;2.00;88.80
1812;DHT22;904;47.814;11.134;2023-02-26T00:35:12;2.00;89.10
1812;DHT22;904;47.814;11.134;2023-02-26T00:38:01;2.00;89.20
1812;DHT22;904;47.814;11.134;2023-02-26T00:40:35;2.00;88.80
1812;DHT22;904;47.814;11.134;2023-02-26T00:43:06;2.00;89.00
1812;DHT22;904;47.814;11.134;2023-02-26T00:45:36;2.00;89.50
1812;DHT22;904;47.814;11.134;2023-02-26T00:48:21;2.00;89.20
1812;DHT22;904;47.814;11.134;2023-02-26T00:50:59;2.00;89.10
1812;DHT22;904;47.814;11.134;2023-02-26T00:53:33;2.00;89.50
1812;DHT22;904;47.814;11.134;2023-02-26T00:56:02;1.90;89.60
1812;DHT22;904;47.814;11.134;2023-02-26T00:58:29;2.00;89.60
1812;DHT22;904;47.814;11.134;2023-02-26T01:00:58;1.90;89.70
1812;DHT22;904;47.814;11.134;2023-02-26T01:03:26;2.00;90.00
1812;DHT22;904;47.814;11.134;2023-02-26T01:05:55;1.90;90.00
1812;DHT22;904;47.814;11.134;2023-02-26T01:08:31;1.90;90.00
1812;DHT22;904;47.814;11.134;2023-02-26T01:11:00;1.90;90.30
1812;DHT22;904;47.814;11.134;2023-02-26T01:13:28;1.90;90.30
1812;DHT22;904;47.814;11.134;2023-02-26T01:16:01;1.90;90.20
1812;DHT22;904;47.814;11.134;2023-02-26T01:18:37;1.90;90.40
1812;DHT22;904;47.814;11.134;2023-02-26T01:21:11;1.90;90.20
1812;DHT22;904;47.814;11.134;2023-02-26T01:23:44;1.90;90.20
1812;DHT22;904;47.814;11.134;2023-02-26T01:26:17;1.90;90.10
1812;DHT22;904;47.814;11.134;2023-02-26T01:28:46;1.90;90.20
1812;DHT22;904;47.814;11.134;2023-02-26T01:31:31;1.90;90.20
1812;DHT22;904;47.814;11.134;2023-02-26T01:34:03;1.90;89.90
1812;DHT22;904;47.814;11.134;2023-02-26T01:36:43;1.90;88.90
1812;DHT22;904;47.814;11.134;2023-02-26T01:39:18;1.90;88.40
1812;DHT22;904;47.814;11.134;2023-02-26T01:41:51;1.80;87.80
1812;DHT22;904;47.814;11.134;2023-02-26T01:44:26;1.80;86.60
1812;DHT22;904;47.814;11.134;2023-02-26T01:47:09;1.80;86.20
1812;DHT22;904;47.814;11.134;2023-02-26T01:49:40;1.80;85.70
1812;DHT22;904;47.814;11.134;2023-02-26T01:55:12;1.70;84.90
1812;DHT22;904;47.814;11.134;2023-02-26T01:57:40;1.60;84.70
1812;DHT22;904;47.814;11.134;2023-02-26T02:00:09;1.60;85.30
1812;DHT22;904;47.814;11.134;2023-02-26T02:02:37;1.60;85.40
1812;DHT22;904;47.814;11.134;2023-02-26T02:05:09;1.50;85.40
1812;DHT22;904;47.814;11.134;2023-02-26T02:07:37;1.50;85.50
1812;DHT22;904;47.814;11.134;2023-02-26T02:10:05;1.50;85.70
1812;DHT22;904;47.814;11.134;2023-02-26T02:12:38;1.50;85.90
1812;DHT22;904;47.814;11.134;2023-02-26T02:15:12;1.50;85.90
1812;DHT22;904;47.814;11.134;2023-02-26T02:17:48;1.40;85.80
1812;DHT22;904;47.814;11.134;2023-02-26T02:21:04;1.40;86.10
1812;DHT22;904;47.814;11.134;2023-02-26T02:23:39;1.40;86.00
1812;DHT22;904;47.814;11.134;2023-02-26T02:32:45;1.40;85.90
1812;DHT22;904;47.814;11.134;2023-02-26T02:35:19;1.40;85.50
1812;DHT22;904;47.814;11.134;2023-02-26T02:37:53;1.40;85.30
1812;DHT22;904;47.814;11.134;2023-02-26T02:40:24;1.30;84.90
1812;DHT22;904;47.814;11.134;2023-02-26T02:42:58;1.30;84.70
1812;DHT22;904;47.814;11.134;2023-02-26T02:45:41;1.30;84.90
1812;DHT22;904;47.814;11.134;2023-02-26T02:48:15;1.30;85.20
1812;DHT22;904;47.814;11.134;2023-02-26T02:50:46;1.30;85.10
1812;DHT22;904;47.814;11.134;2023-02-26T02:53:19;1.30;85.10
1812;DHT22;904;47.814;11.134;2023-02-26T02:55:50;1.20;85.00
1812;DHT22;904;47.814;11.134;2023-02-26T02:58:23;1.30;84.60
1812;DHT22;904;47.814;11.134;2023-02-26T03:00:55;1.20;84.10
1812;DHT22;904;47.814;11.134;2023-02-26T03:03:28;1.20;83.70
1812;DHT22;904;47.814;11.134;2023-02-26T03:06:00;1.20;83.70
1812;DHT22;904;47.814;11.134;2023-02-26T03:08:30;1.10;83.30
1812;DHT22;904;47.814;11.134;2023-02-26T03:11:00;1.10;83.10
1812;DHT22;904;47.814;11.134;2023-02-26T03:13:27;1.10;83.00
1812;DHT22;904;47.814;11.134;2023-02-26T03:16:02;1.10;82.60
1812;DHT22;904;47.814;11.134;2023-02-26T03:18:41;1.10;83.20
1812;DHT22;904;47.814;11.134;2023-02-26T03:21:16;1.00;83.30
1812;DHT22;904;47.814;11.134;2023-02-26T03:23:51;1.00;83.20
1812;DHT22;904;47.814;11.134;2023-02-26T03:26:25;1.10;83.50
1812;DHT22;904;47.814;11.134;2023-02-26T03:29:01;1.00;83.90
1812;DHT22;904;47.814;11.134;2023-02-26T03:31:32;1.00;84.20
1812;DHT22;904;47.814;11.134;2023-02-26T03:34:06;1.00;84.50
1812;DHT22;904;47.814;11.134;2023-02-26T03:36:38;1.00;85.20
1812;DHT22;904;47.814;11.134;2023-02-26T03:39:10;1.00;85.00
1812;DHT22;904;47.814;11.134;2023-02-26T03:41:42;1.00;84.50
1812;DHT22;904;47.814;11.134;2023-02-26T03:44:15;0.90;83.10
1812;DHT22;904;47.814;11.134;2023-02-26T03:46:48;0.90;82.50
1812;DHT22;904;47.814;11.134;2023-02-26T03:49:23;0.90;81.70
1812;DHT22;904;47.814;11.134;2023-02-26T03:51:53;0.90;80.40
1812;DHT22;904;47.814;11.134;2023-02-26T03:54:22;0.90;79.30
1812;DHT22;904;47.814;11.134;2023-02-26T03:56:52;0.80;78.80
1812;DHT22;904;47.814;11.134;2023-02-26T03:59:19;0.80;78.20
1812;DHT22;904;47.814;11.134;2023-02-26T04:01:50;0.80;78.10
1812;DHT22;904;47.814;11.134;2023-02-26T04:04:25;0.80;78.00
1812;DHT22;904;47.814;11.134;2023-02-26T04:06:54;0.70;78.00
1812;DHT22;904;47.814;11.134;2023-02-26T04:09:24;0.70;78.20
1812;DHT22;904;47.814;11.134;2023-02-26T04:11:52;0.70;78.40
1812;DHT22;904;47.814;11.134;2023-02-26T04:14:21;0.60;78.70
1812;DHT22;904;47.814;11.134;2023-02-26T04:16:48;0.60;79.00
1812;DHT22;904;47.814;11.134;2023-02-26T04:19:15;0.60;79.20
1812;DHT22;904;47.814;11.134;2023-02-26T04:21:44;0.60;78.80
1812;DHT22;904;47.814;11.134;2023-02-26T04:24:11;0.50;79.10
1812;DHT22;904;47.814;11.134;2023-02-26T04:26:39;0.50;79.20
1812;DHT22;904;47.814;11.134;2023-02-26T04:29:06;0.50;79.20
1812;DHT22;904;47.814;11.134;2023-02-26T04:31:35;0.50;79.50
1812;DHT22;904;47.814;11.134;2023-02-26T04:34:03;0.50;79.40
1812;DHT22;904;47.814;11.134;2023-02-26T04:36:30;0.50;79.60
1812;DHT22;904;47.814;11.134;2023-02-26T04:39:00;0.50;79.90
1812;DHT22;904;47.814;11.134;2023-02-26T04:41:27;0.50;79.90
1812;DHT22;904;47.814;11.134;2023-02-26T04:43:55;0.40;78.80
1812;DHT22;904;47.814;11.134;2023-02-26T04:46:26;0.40;78.80
1812;DHT22;904;47.814;11.134;2023-02-26T04:48:54;0.40;78.50
1812;DHT22;904;47.814;11.134;2023-02-26T04:51:21;0.40;78.10
1812;DHT22;904;47.814;11.134;2023-02-26T04:53:48;0.40;78.40
1812;DHT22;904;47.814;11.134;2023-02-26T04:56:17;0.30;77.70
1812;DHT22;904;47.814;11.134;2023-02-26T04:58:47;0.30;77.80
1812;DHT22;904;47.814;11.134;2023-02-26T05:01:14;0.30;78.00
1812;DHT22;904;47.814;11.134;2023-02-26T05:03:42;0.20;77.20
1812;DHT22;904;47.814;11.134;2023-02-26T05:06:09;0.20;77.10
1812;DHT22;904;47.814;11.134;2023-02-26T05:08:37;0.20;77.50
1812;DHT22;904;47.814;11.134;2023-02-26T05:11:07;0.20;76.30
1812;DHT22;904;47.814;11.134;2023-02-26T05:13:36;0.20;76.10
1812;DHT22;904;47.814;11.134;2023-02-26T05:16:04;0.10;76.20
1812;DHT22;904;47.814;11.134;2023-02-26T05:18:32;0.10;76.30
1812;DHT22;904;47.814;11.134;2023-02-26T05:20:59;0.10;76.30
1812;DHT22;904;47.814;11.134;2023-02-26T05:23:26;0.10;76.10
1812;DHT22;904;47.814;11.134;2023-02-26T05:25:54;0.10;75.80
1812;DHT22;904;47.814;11.134;2023-02-26T05:28:22;0.10;75.80
1812;DHT22;904;47.814;11.134;2023-02-26T05:30:51;0.10;76.00
1812;DHT22;904;47.814;11.134;2023-02-26T05:33:19;0.10;76.00
1812;DHT22;904;47.814;11.134;2023-02-26T05:35:46;0.10;75.90
1812;DHT22;904;47.814;11.134;2023-02-26T05:38:14;0.10;76.10
1812;DHT22;904;47.814;11.134;2023-02-26T05:40:41;0.10;76.30
1812;DHT22;904;47.814;11.134;2023-02-26T05:43:09;0.10;76.10
1812;DHT22;904;47.814;11.134;2023-02-26T05:45:36;0.10;76.20
1812;DHT22;904;47.814;11.134;2023-02-26T05:48:05;0.10;76.20
1812;DHT22;904;47.814;11.134;2023-02-26T05:50:33;0.10;75.30
1812;DHT22;904;47.814;11.134;2023-02-26T05:53:00;0.10;75.50
1812;DHT22;904;47.814;11.134;2023-02-26T05:55:27;0.10;75.40
1812;DHT22;904;47.814;11.134;2023-02-26T05:57:54;0.10;75.20
1812;DHT22;904;47.814;11.134;2023-02-26T06:00:22;0.10;75.30
1812;DHT22;904;47.814;11.134;2023-02-26T06:02:49;0.10;75.30
1812;DHT22;904;47.814;11.134;2023-02-26T06:05:18;0.10;75.00
1812;DHT22;904;47.814;11.134;2023-02-26T06:07:46;0.10;74.90
1812;DHT22;904;47.814;11.134;2023-02-26T06:10:14;0.10;74.50
1812;DHT22;904;47.814;11.134;2023-02-26T06:12:41;0.10;74.70
1812;DHT22;904;47.814;11.134;2023-02-26T06:15:09;0.10;74.80
1812;DHT22;904;47.814;11.134;2023-02-26T06:17:37;0.10;74.80
1812;DHT22;904;47.814;11.134;2023-02-26T06:20:06;0.10;74.80
1812;DHT22;904;47.814;11.134;2023-02-26T06:22:35;0.10;75.10
1812;DHT22;904;47.814;11.134;2023-02-26T06:25:05;0.10;74.90
1812;DHT22;904;47.814;11.134;2023-02-26T06:27:33;0.10;74.90
1812;DHT22;904;47.814;11.134;2023-02-26T06:30:00;0.10;74.80
1812;DHT22;904;47.814;11.134;2023-02-26T06:32:28;0.10;74.70
1812;DHT22;904;47.814;11.134;2023-02-26T06:34:55;0.00;74.60
1812;DHT22;904;47.814;11.134;2023-02-26T06:37:22;0.00;74.50
1812;DHT22;904;47.814;11.134;2023-02-26T06:39:51;0.00;74.30
1812;DHT22;904;47.814;11.134;2023-02-26T06:42:19;0.10;74.50
1812;DHT22;904;47.814;11.134;2023-02-26T06:44:46;0.10;74.60
1812;DHT22;904;47.814;11.134;2023-02-26T06:47:13;0.10;73.70
1812;DHT22;904;47.814;11.134;2023-02-26T06:49:40;0.10;73.70
1812;DHT22;904;47.814;11.134;2023-02-26T06:52:08;0.10;73.90
1812;DHT22;904;47.814;11.134;2023-02-26T06:54:35;0.10;73.90
1812;DHT22;904;47.814;11.134;2023-02-26T06:57:04;0.20;73.80
1812;DHT22;904;47.814;11.134;2023-02-26T06:59:31;0.20;73.50
1812;DHT22;904;47.814;11.134;2023-02-26T07:01:58;0.20;73.80
1812;DHT22;904;47.814;11.134;2023-02-26T07:04:26;0.30;74.10
1812;DHT22;904;47.814;11.134;2023-02-26T07:06:53;0.30;73.70
1812;DHT22;904;47.814;11.134;2023-02-26T07:09:21;0.40;73.40
1812;DHT22;904;47.814;11.134;2023-02-26T07:11:48;0.50;72.50
1812;DHT22;904;47.814;11.134;2023-02-26T07:14:17;0.50;72.20
1812;DHT22;904;47.814;11.134;2023-02-26T07:16:44;0.60;72.30
1812;DHT22;904;47.814;11.134;2023-02-26T07:19:11;0.60;71.80
1812;DHT22;904;47.814;11.134;2023-02-26T07:21:39;0.70;71.20
1812;DHT22;904;47.814;11.134;2023-02-26T07:24:09;0.80;70.50
1812;DHT22;904;47.814;11.134;2023-02-26T07:26:36;1.00;70.30
1812;DHT22;904;47.814;11.134;2023-02-26T07:29:04;1.10;69.20
1812;DHT22;904;47.814;11.134;2023-02-26T07:31:33;1.20;68.20
1812;DHT22;904;47.814;11.134;2023-02-26T07:34:00;1.30;67.60
1812;DHT22;904;47.814;11.134;2023-02-26T07:36:28;1.30;66.90
1812;DHT22;904;47.814;11.134;2023-02-26T07:38:55;1.40;66.20
1812;DHT22;904;47.814;11.134;2023-02-26T07:41:22;1.40;65.90
1812;DHT22;904;47.814;11.134;2023-02-26T07:43:49;1.50;65.70
1812;DHT22;904;47.814;11.134;2023-02-26T07:46:17;1.60;64.90
1812;DHT22;904;47.814;11.134;2023-02-26T07:48:45;1.60;64.20
1812;DHT22;904;47.814;11.134;2023-02-26T07:51:13;1.70;64.50
1812;DHT22;904;47.814;11.134;2023-02-26T07:53:41;1.70;63.60
1812;DHT22;904;47.814;11.134;2023-02-26T07:56:08;1.80;63.40
1812;DHT22;904;47.814;11.134;2023-02-26T07:58:36;1.90;62.80
1812;DHT22;904;47.814;11.134;2023-02-26T08:01:03;2.00;62.80
1812;DHT22;904;47.814;11.134;2023-02-26T08:03:31;2.00;62.20
1812;DHT22;904;47.814;11.134;2023-02-26T08:06:00;1.90;62.30
1812;DHT22;904;47.814;11.134;2023-02-26T08:08:28;1.80;62.20
1812;DHT22;904;47.814;11.134;2023-02-26T08:11:00;1.80;61.80
1812;DHT22;904;47.814;11.134;2023-02-26T08:13:28;1.70;61.70
1812;DHT22;904;47.814;11.134;2023-02-26T08:15:57;1.70;62.00
1812;DHT22;904;47.814;11.134;2023-02-26T08:18:24;1.70;62.80
1812;DHT22;904;47.814;11.134;2023-02-26T08:20:51;1.70;62.70
1812;DHT22;904;47.814;11.134;2023-02-26T08:23:20;1.70;63.00
1812;DHT22;904;47.814;11.134;2023-02-26T08:25:47;1.70;62.90
1812;DHT22;904;47.814;11.134;2023-02-26T08:28:16;1.70;63.20
1812;DHT22;904;47.814;11.134;2023-02-26T08:30:44;1.70;63.10
1812;DHT22;904;47.814;11.134;2023-02-26T08:33:11;1.80;63.30
1812;DHT22;904;47.814;11.134;2023-02-26T08:35:39;1.80;62.60
1812;DHT22;904;47.814;11.134;2023-02-26T08:38:07;1.80;62.30
1812;DHT22;904;47.814;11.134;2023-02-26T08:40:36;1.90;62.00
1812;DHT22;904;47.814;11.134;2023-02-26T08:43:04;1.90;62.00
1812;DHT22;904;47.814;11.134;2023-02-26T08:45:31;1.80;62.30
1812;DHT22;904;47.814;11.134;2023-02-26T08:47:58;1.80;61.90
1812;DHT22;904;47.814;11.134;2023-02-26T08:50:26;1.80;61.30
1812;DHT22;904;47.814;11.134;2023-02-26T08:52:53;1.70;61.30
1812;DHT22;904;47.814;11.134;2023-02-26T08:55:20;1.70;61.70
1812;DHT22;904;47.814;11.134;2023-02-26T08:57:49;1.70;62.00
1812;DHT22;904;47.814;11.134;2023-02-26T09:00:17;1.70;62.10
1812;DHT22;904;47.814;11.134;2023-02-26T09:02:45;1.60;62.40
1812;DHT22;904;47.814;11.134;2023-02-26T09:05:13;1.60;62.00
1812;DHT22;904;47.814;11.134;2023-02-26T09:07:41;1.60;62.40
1812;DHT22;904;47.814;11.134;2023-02-26T09:10:10;1.70;62.70
1812;DHT22;904;47.814;11.134;2023-02-26T09:12:37;1.80;63.10
1812;DHT22;904;47.814;11.134;2023-02-26T09:15:08;1.90;63.00
1812;DHT22;904;47.814;11.134;2023-02-26T09:17:35;2.00;62.70
1812;DHT22;904;47.814;11.134;2023-02-26T09:20:03;2.10;62.70
1812;DHT22;904;47.814;11.134;2023-02-26T09:22:31;2.10;62.60
1812;DHT22;904;47.814;11.134;2023-02-26T09:24:58;2.20;62.60
1812;DHT22;904;47.814;11.134;2023-02-26T09:27:25;2.20;62.40
1812;DHT22;904;47.814;11.134;2023-02-26T09:29:53;2.30;62.50
1812;DHT22;904;47.814;11.134;2023-02-26T09:32:22;2.30;62.10
1812;DHT22;904;47.814;11.134;2023-02-26T09:34:51;2.30;62.40
1812;DHT22;904;47.814;11.134;2023-02-26T09:37:19;2.40;62.00
1812;DHT22;904;47.814;11.134;2023-02-26T09:39:46;2.40;62.00
1812;DHT22;904;47.814;11.134;2023-02-26T09:42:27;2.40;61.80
1812;DHT22;904;47.814;11.134;2023-02-26T09:44:58;2.50;62.30
1812;DHT22;904;47.814;11.134;2023-02-26T09:47:30;2.70;62.00
1812;DHT22;904;47.814;11.134;2023-02-26T09:50:09;2.90;61.90
1812;DHT22;904;47.814;11.134;2023-02-26T09:52:42;3.40;60.90
1812;DHT22;904;47.814;11.134;2023-02-26T09:55:15;5.70;63.50
1812;DHT22;904;47.814;11.134;2023-02-26T09:57:45;11.00;51.10
1812;DHT22;904;47.814;11.134;2023-02-26T10:00:23;12.20;39.80
1812;DHT22;904;47.814;11.134;2023-02-26T10:03:02;11.30;38.10
1812;DHT22;904;47.814;11.134;2023-02-26T10:05:37;10.20;38.70
1812;DHT22;904;47.814;11.134;2023-02-26T10:08:13;9.20;40.30
1812;DHT22;904;47.814;11.134;2023-02-26T10:10:47;8.40;42.20
1812;DHT22;904;47.814;11.134;2023-02-26T10:13:34;7.80;43.70
1812;DHT22;904;47.814;11.134;2023-02-26T10:16:08;7.20;44.20
1812;DHT22;904;47.814;11.134;2023-02-26T10:18:43;6.70;44.90
1812;DHT22;904;47.814;11.134;2023-02-26T10:21:16;6.30;45.60
1812;DHT22;904;47.814;11.134;2023-02-26T10:23:50;5.90;46.20
1812;DHT22;904;47.814;11.134;2023-02-26T10:26:22;5.50;45.20
1812;DHT22;904;47.814;11.134;2023-02-26T10:28:58;5.20;46.70
1812;DHT22;904;47.814;11.134;2023-02-26T10:31:33;5.00;46.90
1812;DHT22;904;47.814;11.134;2023-02-26T10:34:15;4.70;47.30
1812;DHT22;904;47.814;11.134;2023-02-26T10:36:49;4.60;47.70
1812;DHT22;904;47.814;11.134;2023-02-26T10:39:30;4.40;48.50
1812;DHT22;904;47.814;11.134;2023-02-26T10:42:03;4.30;49.80
1812;DHT22;904;47.814;11.134;2023-02-26T10:44:37;4.30;49.80
1812;DHT22;904;47.814;11.134;2023-02-26T10:47:13;4.10;50.10
1812;DHT22;904;47.814;11.134;2023-02-26T10:49:53;3.80;50.00
1812;DHT22;904;47.814;11.134;2023-02-26T10:52:23;3.60;51.70
1812;DHT22;904;47.814;11.134;2023-02-26T10:55:16;3.50;51.90
1812;DHT22;904;47.814;11.134;2023-02-26T10:57:49;3.50;52.70
1812;DHT22;904;47.814;11.134;2023-02-26T11:00:19;3.50;53.30
1812;DHT22;904;47.814;11.134;2023-02-26T11:02:49;3.40;53.50
1812;DHT22;904;47.814;11.134;2023-02-26T11:05:22;3.40;53.70
1812;DHT22;904;47.814;11.134;2023-02-26T11:07:53;3.40;53.90
1812;DHT22;904;47.814;11.134;2023-02-26T11:10:24;3.40;53.70
1812;DHT22;904;47.814;11.134;2023-02-26T11:12:58;3.40;53.80
1812;DHT22;904;47.814;11.134;2023-02-26T11:15:26;3.30;54.10
1812;DHT22;904;47.814;11.134;2023-02-26T11:17:56;3.30;54.90
1812;DHT22;904;47.814;11.134;2023-02-26T11:20:30;3.20;55.00
1812;DHT22;904;47.814;11.134;2023-02-26T11:23:01;3.20;55.20
1812;DHT22;904;47.814;11.134;2023-02-26T11:25:31;3.20;55.40
1812;DHT22;904;47.814;11.134;2023-02-26T11:28:01;3.30;55.30
1812;DHT22;904;47.814;11.134;2023-02-26T11:30:33;3.60;55.30
1812;DHT22;904;47.814;11.134;2023-02-26T11:33:10;4.10;55.40
1812;DHT22;904;47.814;11.134;2023-02-26T11:35:42;4.50;53.80
1812;DHT22;904;47.814;11.134;2023-02-26T11:38:16;4.60;53.40
1812;DHT22;904;47.814;11.134;2023-02-26T11:40:47;4.50;52.40
1812;DHT22;904;47.814;11.134;2023-02-26T11:43:17;4.40;53.10
1812;DHT22;904;47.814;11.134;2023-02-26T11:45:48;4.30;53.40
1812;DHT22;904;47.814;11.134;2023-02-26T11:48:21;4.20;53.40
1812;DHT22;904;47.814;11.134;2023-02-26T11:50:59;4.10;53.40
1812;DHT22;904;47.814;11.134;2023-02-26T11:53:30;4.10;53.40
1812;DHT22;904;47.814;11.134;2023-02-26T11:56:00;4.10;54.10
1812;DHT22;904;47.814;11.134;2023-02-26T11:58:33;4.20;53.50
1812;DHT22;904;47.814;11.134;2023-02-26T12:01:01;4.10;53.50
1812;DHT22;904;47.814;11.134;2023-02-26T12:03:31;4.10;54.10
1812;DHT22;904;47.814;11.134;2023-02-26T12:06:02;4.10;54.50
1812;DHT22;904;47.814;11.134;2023-02-26T12:08:31;4.10;54.20
1812;DHT22;904;47.814;11.134;2023-02-26T12:11:34;4.10;53.00
1812;DHT22;904;47.814;11.134;2023-02-26T12:17:02;4.20;53.80
1812;DHT22;904;47.814;11.134;2023-02-26T12:19:39;4.20;52.50
1812;DHT22;904;47.814;11.134;2023-02-26T12:22:20;4.30;52.70
1812;DHT22;904;47.814;11.134;2023-02-26T12:25:10;4.20;53.00
1812;DHT22;904;47.814;11.134;2023-02-26T12:28:02;4.20;53.50
1812;DHT22;904;47.814;11.134;2023-02-26T12:33:47;4.00;53.00
1812;DHT22;904;47.814;11.134;2023-02-26T12:36:26;4.10;53.40
1812;DHT22;904;47.814;11.134;2023-02-26T12:39:06;4.20;53.30
1812;DHT22;904;47.814;11.134;2023-02-26T12:41:49;4.30;52.40
1812;DHT22;904;47.814;11.134;2023-02-26T12:44:31;4.20;52.60
1812;DHT22;904;47.814;11.134;2023-02-26T12:47:16;4.20;53.20
1812;DHT22;904;47.814;11.134;2023-02-26T12:49:53;4.20;53.00
1812;DHT22;904;47.814;11.134;2023-02-26T12:52:50;4.10;53.10
1812;DHT22;904;47.814;11.134;2023-02-26T12:55:30;4.30;53.30
1812;DHT22;904;47.814;11.134;2023-02-26T12:58:29;7.10;51.40
1812;DHT22;904;47.814;11.134;2023-02-26T13:01:20;9.20;43.50
1812;DHT22;904;47.814;11.134;2023-02-26T13:07:00;8.70;42.20
1812;DHT22;904;47.814;11.134;2023-02-26T13:09:40;7.90;42.30
1812;DHT22;904;47.814;11.134;2023-02-26T13:12:27;7.20;43.70
1812;DHT22;904;47.814;11.134;2023-02-26T13:15:09;6.50;44.90
1812;DHT22;904;47.814;11.134;2023-02-26T13:17:46;5.90;46.50
1812;DHT22;904;47.814;11.134;2023-02-26T13:20:18;5.40;48.20
1812;DHT22;904;47.814;11.134;2023-02-26T13:22:52;5.10;48.80
1812;DHT22;904;47.814;11.134;2023-02-26T13:25:32;5.50;50.80
1812;DHT22;904;47.814;11.134;2023-02-26T13:28:05;7.70;50.10
1812;DHT22;904;47.814;11.134;2023-02-26T13:30:42;9.70;43.00
1812;DHT22;904;47.814;11.134;2023-02-26T13:33:16;9.30;41.50
1812;DHT22;904;47.814;11.134;2023-02-26T13:35:44;8.40;42.30
1812;DHT22;904;47.814;11.134;2023-02-26T13:38:18;7.90;44.00
1812;DHT22;904;47.814;11.134;2023-02-26T13:40:55;7.30;44.50
1812;DHT22;904;47.814;11.134;2023-02-26T13:43:40;6.60;45.40
1812;DHT22;904;47.814;11.134;2023-02-26T13:46:17;5.80;46.90
1812;DHT22;904;47.814;11.134;2023-02-26T13:48:51;5.30;50.00
1812;DHT22;904;47.814;11.134;2023-02-26T13:51:28;4.90;53.00
1812;DHT22;904;47.814;11.134;2023-02-26T13:54:00;4.70;54.50
1812;DHT22;904;47.814;11.134;2023-02-26T13:56:53;4.50;55.70
1812;DHT22;904;47.814;11.134;2023-02-26T13:59:34;4.50;56.70
1812;DHT22;904;47.814;11.134;2023-02-26T14:02:36;4.50;56.90
1812;DHT22;904;47.814;11.134;2023-02-26T14:05:25;4.30;57.40
1812;DHT22;904;47.814;11.134;2023-02-26T14:08:20;4.10;57.30
1812;DHT22;904;47.814;11.134;2023-02-26T14:10:55;3.70;58.20
1812;DHT22;904;47.814;11.134;2023-02-26T14:13:23;3.50;59.40
1812;DHT22;904;47.814;11.134;2023-02-26T14:16:01;3.20;60.30
1812;DHT22;904;47.814;11.134;2023-02-26T14:18:35;3.10;61.70
1812;DHT22;904;47.814;11.134;2023-02-26T14:21:37;3.00;62.50
1812;DHT22;904;47.814;11.134;2023-02-26T14:24:12;2.80;64.20
1812;DHT22;904;47.814;11.134;2023-02-26T14:26:46;2.70;65.40
1812;DHT22;904;47.814;11.134;2023-02-26T14:29:18;2.60;65.40
1812;DHT22;904;47.814;11.134;2023-02-26T14:32:13;2.60;65.80
1812;DHT22;904;47.814;11.134;2023-02-26T14:34:47;2.60;64.10
1812;DHT22;904;47.814;11.134;2023-02-26T14:37:18;2.70;63.30
1812;DHT22;904;47.814;11.134;2023-02-26T14:39:48;2.60;63.30
1812;DHT22;904;47.814;11.134;2023-02-26T14:42:20;2.60;63.10
1812;DHT22;904;47.814;11.134;2023-02-26T14:44:50;2.70;63.50
1812;DHT22;904;47.814;11.134;2023-02-26T14:47:20;2.70;63.20
1812;DHT22;904;47.814;11.134;2023-02-26T14:49:48;2.90;63.10
1812;DHT22;904;47.814;11.134;2023-02-26T14:58:24;3.00;63.30
1812;DHT22;904;47.814;11.134;2023-02-26T15:01:01;2.90;62.40
1812;DHT22;904;47.814;11.134;2023-02-26T15:03:50;2.90;62.90
1812;DHT22;904;47.814;11.134;2023-02-26T15:06:45;2.80;63.30
1812;DHT22;904;47.814;11.134;2023-02-26T15:09:19;2.80;64.00
1812;DHT22;904;47.814;11.134;2023-02-26T15:12:00;2.90;64.50
1812;DHT22;904;47.814;11.134;2023-02-26T15:14:58;3.00;65.10
1812;DHT22;904;47.814;11.134;2023-02-26T15:17:43;2.90;65.20
1812;DHT22;904;47.814;11.134;2023-02-26T15:20:24;2.80;66.00
1812;DHT22;904;47.814;11.134;2023-02-26T15:23:07;2.60;67.10
1812;DHT22;904;47.814;11.134;2023-02-26T15:25:37;2.50;68.30
1812;DHT22;904;47.814;11.134;2023-02-26T15:28:09;2.30;70.10
1812;DHT22;904;47.814;11.134;2023-02-26T15:30:37;2.20;72.20
1812;DHT22;904;47.814;11.134;2023-02-26T15:33:12;1.90;74.30
1812;DHT22;904;47.814;11.134;2023-02-26T15:35:42;1.80;75.90
1812;DHT22;904;47.814;11.134;2023-02-26T15:38:10;1.70;76.00
1812;DHT22;904;47.814;11.134;2023-02-26T15:40:36;1.70;76.40
1812;DHT22;904;47.814;11.134;2023-02-26T15:43:05;1.60;76.00
1812;DHT22;904;47.814;11.134;2023-02-26T15:45:37;1.60;76.00
1812;DHT22;904;47.814;11.134;2023-02-26T15:48:07;1.60;76.60
1812;DHT22;904;47.814;11.134;2023-02-26T15:50:39;1.50;76.20
1812;DHT22;904;47.814;11.134;2023-02-26T15:53:12;1.60;76.10
1812;DHT22;904;47.814;11.134;2023-02-26T15:55:46;1.50;76.00
1812;DHT22;904;47.814;11.134;2023-02-26T15:58:19;1.40;75.70
1812;DHT22;904;47.814;11.134;2023-02-26T16:00:52;1.30;76.10
1812;DHT22;904;47.814;11.134;2023-02-26T16:03:25;1.30;75.80
1812;DHT22;904;47.814;11.134;2023-02-26T16:05:54;1.20;75.80
1812;DHT22;904;47.814;11.134;2023-02-26T16:08:23;1.30;74.70
1812;DHT22;904;47.814;11.134;2023-02-26T16:10:51;1.20;75.20
1812;DHT22;904;47.814;11.134;2023-02-26T16:13:24;1.00;75.90
1812;DHT22;904;47.814;11.134;2023-02-26T16:15:53;0.90;75.30
1812;DHT22;904;47.814;11.134;2023-02-26T16:18:22;0.90;75.30
1812;DHT22;904;47.814;11.134;2023-02-26T16:20:54;0.90;75.30
1812;DHT22;904;47.814;11.134;2023-02-26T16:23:28;0.90;74.80
1812;DHT22;904;47.814;11.134;2023-02-26T16:25:59;0.80;74.80
1812;DHT22;904;47.814;11.134;2023-02-26T16:28:29;0.80;74.70
1812;DHT22;904;47.814;11.134;2023-02-26T16:30:59;0.80;74.50
1812;DHT22;904;47.814;11.134;2023-02-26T16:33:30;0.80;74.40
1812;DHT22;904;47.814;11.134;2023-02-26T16:36:03;0.80;74.10
1812;DHT22;904;47.814;11.134;2023-02-26T16:38:42;0.70;73.50
1812;DHT22;904;47.814;11.134;2023-02-26T16:41:11;0.60;73.30
1812;DHT22;904;47.814;11.134;2023-02-26T16:43:50;0.60;73.30
1812;DHT22;904;47.814;11.134;2023-02-26T16:46:20;0.50;73.40
1812;DHT22;904;47.814;11.134;2023-02-26T16:48:50;0.50;73.90
1812;DHT22;904;47.814;11.134;2023-02-26T16:51:21;0.50;74.20
1812;DHT22;904;47.814;11.134;2023-02-26T16:53:53;0.50;74.00
1812;DHT22;904;47.814;11.134;2023-02-26T16:56:26;0.50;74.10
1812;DHT22;904;47.814;11.134;2023-02-26T16:58:56;0.50;74.40
1812;DHT22;904;47.814;11.134;2023-02-26T17:01:27;0.50;74.50
1812;DHT22;904;47.814;11.134;2023-02-26T17:04:00;0.50;74.30
1812;DHT22;904;47.814;11.134;2023-02-26T17:06:29;0.50;74.50
1812;DHT22;904;47.814;11.134;2023-02-26T17:09:02;0.40;74.60
1812;DHT22;904;47.814;11.134;2023-02-26T17:11:37;0.40;74.70
1812;DHT22;904;47.814;11.134;2023-02-26T17:14:14;0.40;74.90